sensor_id;sensor_type;location;lat;lon;timestamp;temperature;humidity
8248;DHT22;4164;49.844;8.830;2023-02-03T00:00:09;7.30;99.90
8248;DHT22;4164;49.844;8.830;2023-02-03T00:02:35;7.30;99.90
8248;DHT22;4164;49.844;8.830;2023-02-03T00:05:00;7.40;99.90
8248;DHT22;4164;49.844;8.830;2023-02-03T00:07:27;7.40;99.90
8248;DHT22;4164;49.844;8.830;2023-02-03T00:09:55;7.40;99.90
8248;DHT22;4164;49.844;8.830;2023-02-03T00:12:20;7.40;99.90
8248;DHT22;4164;49.844;8.830;2023-02-03T00:14:46;7.40;99.90
8248;DHT22;4164;49.844;8.830;2023-02-03T00:17:12;7.40;99.90
8248;DHT22;4164;49.844;8.830;2023-02-03T00:19:39;7.50;99.90
8248;DHT22;4164;49.844;8.830;2023-02-03T00:22:05;7.50;99.90
8248;DHT22;4164;49.844;8.830;2023-02-03T00:24:30;7.50;99.90
8248;DHT22;4164;49.844;8.830;2023-02-03T00:26:56;7.40;99.90
8248;DHT22;4164;49.844;8.830;2023-02-03T00:29:21;7.50;99.90
8248;DHT22;4164;49.844;8.830;2023-02-03T00:31:53;7.50;99.90
8248;DHT22;4164;49.844;8.830;2023-02-03T00:34:18;7.40;99.90
8248;DHT22;4164;49.844;8.830;2023-02-03T00:36:44;7.50;99.90
8248;DHT22;4164;49.844;8.830;2023-02-03T00:39:14;7.60;99.90
8248;DHT22;4164;49.844;8.830;2023-02-03T00:41:40;7.60;99.90
8248;DHT22;4164;49.844;8.830;2023-02-03T00:44:06;7.50;99.90
8248;DHT22;4164;49.844;8.830;2023-02-03T00:46:31;7.50;99.90
8248;DHT22;4164;49.844;8.830;2023-02-03T00:48:59;7.50;99.90
8248;DHT22;4164;49.844;8.830;2023-02-03T00:51:24;7.60;99.90
8248;DHT22;4164;49.844;8.830;2023-02-03T00:53:50;7.60;99.90
8248;DHT22;4164;49.844;8.830;2023-02-03T00:56:15;7.60;99.90
8248;DHT22;4164;49.844;8.830;2023-02-03T00:58:41;7.60;99.90
8248;DHT22;4164;49.844;8.830;2023-02-03T01:01:07;7.60;99.90
8248;DHT22;4164;49.844;8.830;2023-02-03T01:03:33;7.60;99.90
8248;DHT22;4164;49.844;8.830;2023-02-03T01:06:15;7.60;99.90
8248;DHT22;4164;49.844;8.830;2023-02-03T01:08:41;7.60;99.90
8248;DHT22;4164;49.844;8.830;2023-02-03T01:11:08;7.60;99.90
8248;DHT22;4164;49.844;8.830;2023-02-03T01:13:34;7.60;99.90
8248;DHT22;4164;49.844;8.830;2023-02-03T01:16:00;7.60;99.90
8248;DHT22;4164;49.844;8.830;2023-02-03T01:18:26;7.60;99.90
8248;DHT22;4164;49.844;8.830;2023-02-03T01:20:51;7.60;99.90
8248;DHT22;4164;49.844;8.830;2023-02-03T01:23:17;7.60;99.90
8248;DHT22;4164;49.844;8.830;2023-02-03T01:25:42;7.50;99.90
8248;DHT22;4164;49.844;8.830;2023-02-03T01:28:08;7.50;99.90
8248;DHT22;4164;49.844;8.830;2023-02-03T01:30:33;7.40;99.90
8248;DHT22;4164;49.844;8.830;2023-02-03T01:32:59;7.40;99.90
8248;DHT22;4164;49.844;8.830;2023-02-03T01:35:24;7.40;99.90
8248;DHT22;4164;49.844;8.830;2023-02-03T01:37:50;7.50;99.90
8248;DHT22;4164;49.844;8.830;2023-02-03T01:40:16;7.50;99.90
8248;DHT22;4164;49.844;8.830;2023-02-03T01:42:42;7.50;99.90
8248;DHT22;4164;49.844;8.830;2023-02-03T01:45:09;7.50;99.90
8248;DHT22;4164;49.844;8.830;2023-02-03T01:47:49;7.50;99.90
8248;DHT22;4164;49.844;8.830;2023-02-03T01:50:29;7.60;99.90
8248;DHT22;4164;49.844;8.830;2023-02-03T01:53:00;7.60;99.90
8248;DHT22;4164;49.844;8.830;2023-02-03T01:55:31;7.60;99.90
8248;DHT22;4164;49.844;8.830;2023-02-03T01:58:01;7.60;99.90
8248;DHT22;4164;49.844;8.830;2023-02-03T02:00:28;7.60;99.90
8248;DHT22;4164;49.844;8.830;2023-02-03T02:02:54;7.60;99.90
8248;DHT22;4164;49.844;8.830;2023-02-03T02:05:29;7.50;99.90
8248;DHT22;4164;49.844;8.830;2023-02-03T02:07:58;7.50;99.90
8248;DHT22;4164;49.844;8.830;2023-02-03T02:10:24;7.50;99.90
8248;DHT22;4164;49.844;8.830;2023-02-03T02:12:50;7.50;99.90
8248;DHT22;4164;49.844;8.830;2023-02-03T02:15:18;7.50;99.90
8248;DHT22;4164;49.844;8.830;2023-02-03T02:17:49;7.50;99.90
8248;DHT22;4164;49.844;8.830;2023-02-03T02:20:31;7.50;99.90
8248;DHT22;4164;49.844;8.830;2023-02-03T02:32:09;7.50;99.90
8248;DHT22;4164;49.844;8.830;2023-02-03T02:40:41;7.50;99.90
8248;DHT22;4164;49.844;8.830;2023-02-03T02:43:39;7.60;99.90
8248;DHT22;4164;49.844;8.830;2023-02-03T02:46:12;7.60;99.90
8248;DHT22;4164;49.844;8.830;2023-02-03T02:51:27;7.60;99.90
8248;DHT22;4164;49.844;8.830;2023-02-03T02:53:59;7.50;99.90
8248;DHT22;4164;49.844;8.830;2023-02-03T02:56:27;7.50;99.90
8248;DHT22;4164;49.844;8.830;2023-02-03T02:58:54;7.50;99.90
8248;DHT22;4164;49.844;8.830;2023-02-03T03:01:20;7.50;99.90
8248;DHT22;4164;49.844;8.830;2023-02-03T03:03:46;7.50;99.90
8248;DHT22;4164;49.844;8.830;2023-02-03T03:06:17;7.60;99.90
8248;DHT22;4164;49.844;8.830;2023-02-03T03:09:00;7.50;99.90
8248;DHT22;4164;49.844;8.830;2023-02-03T03:11:30;7.50;99.90
8248;DHT22;4164;49.844;8.830;2023-02-03T03:13:58;7.40;99.90
8248;DHT22;4164;49.844;8.830;2023-02-03T03:16:26;7.40;99.90
8248;DHT22;4164;49.844;8.830;2023-02-03T03:19:08;7.40;99.90
8248;DHT22;4164;49.844;8.830;2023-02-03T03:21:39;7.30;99.90
8248;DHT22;4164;49.844;8.830;2023-02-03T03:24:11;7.30;99.90
8248;DHT22;4164;49.844;8.830;2023-02-03T03:29:23;7.30;99.90
8248;DHT22;4164;49.844;8.830;2023-02-03T03:31:51;7.20;99.90
8248;DHT22;4164;49.844;8.830;2023-02-03T03:34:17;7.10;99.90
8248;DHT22;4164;49.844;8.830;2023-02-03T03:36:52;7.10;99.90
8248;DHT22;4164;49.844;8.830;2023-02-03T03:39:34;7.00;99.90
8248;DHT22;4164;49.844;8.830;2023-02-03T03:44:46;7.00;99.90
8248;DHT22;4164;49.844;8.830;2023-02-03T03:48:16;7.00;99.90
8248;DHT22;4164;49.844;8.830;2023-02-03T03:50:24;7.00;99.90
8248;DHT22;4164;49.844;8.830;2023-02-03T03:52:52;7.10;99.90
8248;DHT22;4164;49.844;8.830;2023-02-03T03:55:20;7.00;99.90
8248;DHT22;4164;49.844;8.830;2023-02-03T03:58:05;7.00;99.90
8248;DHT22;4164;49.844;8.830;2023-02-03T04:00:34;7.10;99.90
8248;DHT22;4164;49.844;8.830;2023-02-03T04:03:12;7.20;99.90
8248;DHT22;4164;49.844;8.830;2023-02-03T04:05:40;7.10;99.90
8248;DHT22;4164;49.844;8.830;2023-02-03T04:08:05;7.10;99.90
8248;DHT22;4164;49.844;8.830;2023-02-03T04:10:34;7.10;99.90
8248;DHT22;4164;49.844;8.830;2023-02-03T04:13:00;7.10;99.90
8248;DHT22;4164;49.844;8.830;2023-02-03T04:15:26;7.10;99.90
8248;DHT22;4164;49.844;8.830;2023-02-03T04:17:52;7.10;99.90
8248;DHT22;4164;49.844;8.830;2023-02-03T04:20:19;7.10;99.90
8248;DHT22;4164;49.844;8.830;2023-02-03T04:22:45;7.10;99.90
8248;DHT22;4164;49.844;8.830;2023-02-03T04:25:10;7.20;99.90
8248;DHT22;4164;49.844;8.830;2023-02-03T04:27:36;7.10;99.90
8248;DHT22;4164;49.844;8.830;2023-02-03T04:30:02;7.20;99.90
8248;DHT22;4164;49.844;8.830;2023-02-03T04:32:28;7.20;99.90
8248;DHT22;4164;49.844;8.830;2023-02-03T04:34:55;7.20;99.90
8248;DHT22;4164;49.844;8.830;2023-02-03T04:37:22;7.20;99.90
8248;DHT22;4164;49.844;8.830;2023-02-03T04:39:48;7.20;99.90
8248;DHT22;4164;49.844;8.830;2023-02-03T04:42:15;7.20;99.90
8248;DHT22;4164;49.844;8.830;2023-02-03T04:44:41;7.20;99.90
8248;DHT22;4164;49.844;8.830;2023-02-03T04:47:06;7.20;99.90
8248;DHT22;4164;49.844;8.830;2023-02-03T04:49:32;7.30;99.90
8248;DHT22;4164;49.844;8.830;2023-02-03T04:51:57;7.30;99.90
8248;DHT22;4164;49.844;8.830;2023-02-03T04:54:23;7.30;99.90
8248;DHT22;4164;49.844;8.830;2023-02-03T04:56:48;7.30;99.90
8248;DHT22;4164;49.844;8.830;2023-02-03T04:59:14;7.30;99.90
8248;DHT22;4164;49.844;8.830;2023-02-03T05:01:39;7.40;99.90
8248;DHT22;4164;49.844;8.830;2023-02-03T05:04:05;7.50;99.90
8248;DHT22;4164;49.844;8.830;2023-02-03T05:06:30;7.50;99.90
8248;DHT22;4164;49.844;8.830;2023-02-03T05:08:59;7.50;99.90
8248;DHT22;4164;49.844;8.830;2023-02-03T05:11:24;7.60;99.90
8248;DHT22;4164;49.844;8.830;2023-02-03T05:13:50;7.60;99.90
8248;DHT22;4164;49.844;8.830;2023-02-03T05:16:16;7.60;99.90
8248;DHT22;4164;49.844;8.830;2023-02-03T05:18:42;7.70;99.90
8248;DHT22;4164;49.844;8.830;2023-02-03T05:21:07;7.60;99.90
8248;DHT22;4164;49.844;8.830;2023-02-03T05:23:33;7.60;99.90
8248;DHT22;4164;49.844;8.830;2023-02-03T05:25:59;7.50;99.90
8248;DHT22;4164;49.844;8.830;2023-02-03T05:28:24;7.40;99.90
8248;DHT22;4164;49.844;8.830;2023-02-03T05:30:50;7.30;99.90
8248;DHT22;4164;49.844;8.830;2023-02-03T05:33:16;7.20;99.90
8248;DHT22;4164;49.844;8.830;2023-02-03T05:35:42;7.20;99.90
8248;DHT22;4164;49.844;8.830;2023-02-03T05:38:07;7.10;99.90
8248;DHT22;4164;49.844;8.830;2023-02-03T05:40:33;7.20;99.90
8248;DHT22;4164;49.844;8.830;2023-02-03T05:43:18;7.20;99.90
8248;DHT22;4164;49.844;8.830;2023-02-03T05:45:43;7.10;99.90
8248;DHT22;4164;49.844;8.830;2023-02-03T05:48:09;7.20;99.90
8248;DHT22;4164;49.844;8.830;2023-02-03T05:50:35;7.20;99.90
8248;DHT22;4164;49.844;8.830;2023-02-03T05:53:02;7.20;99.90
8248;DHT22;4164;49.844;8.830;2023-02-03T05:55:28;7.20;99.90
8248;DHT22;4164;49.844;8.830;2023-02-03T05:57:54;7.20;99.90
8248;DHT22;4164;49.844;8.830;2023-02-03T06:00:20;7.30;99.90
8248;DHT22;4164;49.844;8.830;2023-02-03T06:02:58;7.20;99.90
8248;DHT22;4164;49.844;8.830;2023-02-03T06:05:25;7.20;99.90
8248;DHT22;4164;49.844;8.830;2023-02-03T06:07:51;7.20;99.90
8248;DHT22;4164;49.844;8.830;2023-02-03T06:10:17;7.20;99.90
8248;DHT22;4164;49.844;8.830;2023-02-03T06:12:43;7.20;99.90
8248;DHT22;4164;49.844;8.830;2023-02-03T06:15:09;7.20;99.90
8248;DHT22;4164;49.844;8.830;2023-02-03T06:17:35;7.10;99.90
8248;DHT22;4164;49.844;8.830;2023-02-03T06:20:03;7.20;99.90
8248;DHT22;4164;49.844;8.830;2023-02-03T06:22:28;7.20;99.90
8248;DHT22;4164;49.844;8.830;2023-02-03T06:24:54;7.20;99.90
8248;DHT22;4164;49.844;8.830;2023-02-03T06:27:19;7.20;99.90
8248;DHT22;4164;49.844;8.830;2023-02-03T06:29:45;7.30;99.90
8248;DHT22;4164;49.844;8.830;2023-02-03T06:32:10;7.30;99.90
8248;DHT22;4164;49.844;8.830;2023-02-03T06:34:36;7.30;99.90
8248;DHT22;4164;49.844;8.830;2023-02-03T06:37:02;7.30;99.90
8248;DHT22;4164;49.844;8.830;2023-02-03T06:39:27;7.30;99.90
8248;DHT22;4164;49.844;8.830;2023-02-03T06:41:53;7.20;99.90
8248;DHT22;4164;49.844;8.830;2023-02-03T06:44:20;7.20;99.90
8248;DHT22;4164;49.844;8.830;2023-02-03T06:46:45;7.30;99.90
8248;DHT22;4164;49.844;8.830;2023-02-03T06:49:11;7.30;99.90
8248;DHT22;4164;49.844;8.830;2023-02-03T06:51:37;7.30;99.90
8248;DHT22;4164;49.844;8.830;2023-02-03T06:54:02;7.30;99.90
8248;DHT22;4164;49.844;8.830;2023-02-03T06:56:29;7.30;99.90
8248;DHT22;4164;49.844;8.830;2023-02-03T06:58:55;7.30;99.90
8248;DHT22;4164;49.844;8.830;2023-02-03T07:01:20;7.30;99.90
8248;DHT22;4164;49.844;8.830;2023-02-03T07:03:46;7.40;99.90
8248;DHT22;4164;49.844;8.830;2023-02-03T07:06:12;7.40;99.90
8248;DHT22;4164;49.844;8.830;2023-02-03T07:08:38;7.40;99.90
8248;DHT22;4164;49.844;8.830;2023-02-03T07:11:04;7.40;99.90
8248;DHT22;4164;49.844;8.830;2023-02-03T07:13:29;7.50;99.90
8248;DHT22;4164;49.844;8.830;2023-02-03T07:15:55;7.50;99.90
8248;DHT22;4164;49.844;8.830;2023-02-03T07:18:21;7.50;99.90
8248;DHT22;4164;49.844;8.830;2023-02-03T07:20:50;7.50;99.90
8248;DHT22;4164;49.844;8.830;2023-02-03T07:23:16;7.50;99.90
8248;DHT22;4164;49.844;8.830;2023-02-03T07:25:42;7.50;99.90
8248;DHT22;4164;49.844;8.830;2023-02-03T07:28:07;7.60;99.90
8248;DHT22;4164;49.844;8.830;2023-02-03T07:30:33;7.60;99.90
8248;DHT22;4164;49.844;8.830;2023-02-03T07:32:58;7.60;99.90
8248;DHT22;4164;49.844;8.830;2023-02-03T07:35:24;7.60;99.90
8248;DHT22;4164;49.844;8.830;2023-02-03T07:37:50;7.60;99.90
8248;DHT22;4164;49.844;8.830;2023-02-03T07:40:16;7.60;99.90
8248;DHT22;4164;49.844;8.830;2023-02-03T07:42:47;7.60;99.90
8248;DHT22;4164;49.844;8.830;2023-02-03T07:45:14;7.60;99.90
8248;DHT22;4164;49.844;8.830;2023-02-03T07:47:41;7.60;99.90
8248;DHT22;4164;49.844;8.830;2023-02-03T07:50:07;7.60;99.90
8248;DHT22;4164;49.844;8.830;2023-02-03T07:52:33;7.50;99.90
8248;DHT22;4164;49.844;8.830;2023-02-03T07:54:58;7.60;99.90
8248;DHT22;4164;49.844;8.830;2023-02-03T07:57:24;7.60;99.90
8248;DHT22;4164;49.844;8.830;2023-02-03T07:59:49;7.70;99.90
8248;DHT22;4164;49.844;8.830;2023-02-03T08:02:15;7.70;99.90
8248;DHT22;4164;49.844;8.830;2023-02-03T08:04:40;7.70;99.90
8248;DHT22;4164;49.844;8.830;2023-02-03T08:07:06;7.70;99.90
8248;DHT22;4164;49.844;8.830;2023-02-03T08:09:31;7.70;99.90
8248;DHT22;4164;49.844;8.830;2023-02-03T08:11:57;7.80;99.90
8248;DHT22;4164;49.844;8.830;2023-02-03T08:14:22;7.80;99.90
8248;DHT22;4164;49.844;8.830;2023-02-03T08:16:48;7.80;99.90
8248;DHT22;4164;49.844;8.830;2023-02-03T08:19:14;7.90;99.90
8248;DHT22;4164;49.844;8.830;2023-02-03T08:21:39;7.90;99.90
8248;DHT22;4164;49.844;8.830;2023-02-03T08:24:05;7.90;99.90
8248;DHT22;4164;49.844;8.830;2023-02-03T08:26:30;8.00;99.90
8248;DHT22;4164;49.844;8.830;2023-02-03T08:28:56;8.00;99.90
8248;DHT22;4164;49.844;8.830;2023-02-03T08:31:22;8.00;99.90
8248;DHT22;4164;49.844;8.830;2023-02-03T08:33:47;8.00;99.90
8248;DHT22;4164;49.844;8.830;2023-02-03T08:36:13;8.10;99.90
8248;DHT22;4164;49.844;8.830;2023-02-03T08:38:39;8.10;99.90
8248;DHT22;4164;49.844;8.830;2023-02-03T08:41:13;8.10;99.90
8248;DHT22;4164;49.844;8.830;2023-02-03T08:43:39;8.10;99.90
8248;DHT22;4164;49.844;8.830;2023-02-03T08:46:06;8.20;99.90
8248;DHT22;4164;49.844;8.830;2023-02-03T08:48:32;8.20;99.90
8248;DHT22;4164;49.844;8.830;2023-02-03T08:50:58;8.20;99.90
8248;DHT22;4164;49.844;8.830;2023-02-03T08:53:24;8.20;99.90
8248;DHT22;4164;49.844;8.830;2023-02-03T08:55:50;8.20;99.90
8248;DHT22;4164;49.844;8.830;2023-02-03T08:58:15;8.20;99.90
8248;DHT22;4164;49.844;8.830;2023-02-03T09:00:41;8.20;99.90
8248;DHT22;4164;49.844;8.830;2023-02-03T09:03:07;8.30;99.90
8248;DHT22;4164;49.844;8.830;2023-02-03T09:05:33;8.30;99.90
8248;DHT22;4164;49.844;8.830;2023-02-03T09:07:59;8.40;99.90
8248;DHT22;4164;49.844;8.830;2023-02-03T09:10:25;8.40;99.90
8248;DHT22;4164;49.844;8.830;2023-02-03T09:12:50;8.40;99.90
8248;DHT22;4164;49.844;8.830;2023-02-03T09:15:16;8.40;99.90
8248;DHT22;4164;49.844;8.830;2023-02-03T09:17:41;8.40;99.90
8248;DHT22;4164;49.844;8.830;2023-02-03T09:20:08;8.40;99.90
8248;DHT22;4164;49.844;8.830;2023-02-03T09:22:33;8.40;99.90
8248;DHT22;4164;49.844;8.830;2023-02-03T09:24:59;8.40;99.90
8248;DHT22;4164;49.844;8.830;2023-02-03T09:27:25;8.50;99.90
8248;DHT22;4164;49.844;8.830;2023-02-03T09:29:51;8.60;99.90
8248;DHT22;4164;49.844;8.830;2023-02-03T09:32:16;8.70;99.90
8248;DHT22;4164;49.844;8.830;2023-02-03T09:34:42;8.70;99.90
8248;DHT22;4164;49.844;8.830;2023-02-03T09:37:07;8.70;99.90
8248;DHT22;4164;49.844;8.830;2023-02-03T09:39:34;8.80;99.90
8248;DHT22;4164;49.844;8.830;2023-02-03T09:42:22;8.80;99.90
8248;DHT22;4164;49.844;8.830;2023-02-03T09:45:09;8.80;99.90
8248;DHT22;4164;49.844;8.830;2023-02-03T09:47:41;8.80;99.90
8248;DHT22;4164;49.844;8.830;2023-02-03T09:50:22;8.80;99.90
8248;DHT22;4164;49.844;8.830;2023-02-03T09:52:49;8.80;99.90
8248;DHT22;4164;49.844;8.830;2023-02-03T09:55:32;8.80;99.90
8248;DHT22;4164;49.844;8.830;2023-02-03T10:00:52;8.80;99.90
8248;DHT22;4164;49.844;8.830;2023-02-03T10:11:45;8.90;99.90
8248;DHT22;4164;49.844;8.830;2023-02-03T10:14:49;8.90;99.90
8248;DHT22;4164;49.844;8.830;2023-02-03T10:22:22;8.90;99.90
8248;DHT22;4164;49.844;8.830;2023-02-03T10:27:34;8.90;99.90
8248;DHT22;4164;49.844;8.830;2023-02-03T10:32:59;8.90;99.90
8248;DHT22;4164;49.844;8.830;2023-02-03T10:35:32;8.90;99.90
8248;DHT22;4164;49.844;8.830;2023-02-03T10:38:02;9.00;99.90
8248;DHT22;4164;49.844;8.830;2023-02-03T10:40:28;9.00;99.90
8248;DHT22;4164;49.844;8.830;2023-02-03T10:42:54;9.00;99.90
8248;DHT22;4164;49.844;8.830;2023-02-03T10:45:39;9.00;99.90
8248;DHT22;4164;49.844;8.830;2023-02-03T10:48:06;9.00;99.90
8248;DHT22;4164;49.844;8.830;2023-02-03T10:50:37;9.00;99.90
8248;DHT22;4164;49.844;8.830;2023-02-03T10:53:19;9.00;99.90
8248;DHT22;4164;49.844;8.830;2023-02-03T10:55:48;9.00;99.90
8248;DHT22;4164;49.844;8.830;2023-02-03T10:58:28;9.00;99.90
8248;DHT22;4164;49.844;8.830;2023-02-03T11:01:12;9.00;99.90
8248;DHT22;4164;49.844;8.830;2023-02-03T11:03:59;9.00;99.90
8248;DHT22;4164;49.844;8.830;2023-02-03T11:06:26;9.00;99.90
8248;DHT22;4164;49.844;8.830;2023-02-03T11:08:52;8.90;99.90
8248;DHT22;4164;49.844;8.830;2023-02-03T11:11:23;8.90;99.90
8248;DHT22;4164;49.844;8.830;2023-02-03T11:14:10;8.80;99.90
8248;DHT22;4164;49.844;8.830;2023-02-03T11:16:37;8.90;99.90
8248;DHT22;4164;49.844;8.830;2023-02-03T11:19:05;8.80;99.90
8248;DHT22;4164;49.844;8.830;2023-02-03T11:24:10;8.90;99.90
8248;DHT22;4164;49.844;8.830;2023-02-03T11:29:25;9.00;99.90
8248;DHT22;4164;49.844;8.830;2023-02-03T11:31:54;9.30;99.90
8248;DHT22;4164;49.844;8.830;2023-02-03T11:34:33;9.50;99.90
8248;DHT22;4164;49.844;8.830;2023-02-03T11:40:23;10.00;99.90
8248;DHT22;4164;49.844;8.830;2023-02-03T11:45:24;9.70;99.90
8248;DHT22;4164;49.844;8.830;2023-02-03T11:47:54;10.30;99.90
8248;DHT22;4164;49.844;8.830;2023-02-03T11:52:52;10.00;99.90
8248;DHT22;4164;49.844;8.830;2023-02-03T11:55:41;10.10;99.90
8248;DHT22;4164;49.844;8.830;2023-02-03T12:06:35;9.60;99.90
8248;DHT22;4164;49.844;8.830;2023-02-03T12:09:24;9.50;99.90
8248;DHT22;4164;49.844;8.830;2023-02-03T12:12:07;9.60;99.90
8248;DHT22;4164;49.844;8.830;2023-02-03T12:14:55;9.50;99.90
8248;DHT22;4164;49.844;8.830;2023-02-03T12:23:17;9.60;99.90
8248;DHT22;4164;49.844;8.830;2023-02-03T12:31:32;9.60;99.90
8248;DHT22;4164;49.844;8.830;2023-02-03T12:36:57;9.60;99.90
8248;DHT22;4164;49.844;8.830;2023-02-03T12:39:51;9.70;99.90
8248;DHT22;4164;49.844;8.830;2023-02-03T12:42:35;9.80;99.90
8248;DHT22;4164;49.844;8.830;2023-02-03T12:50:24;9.70;99.90
8248;DHT22;4164;49.844;8.830;2023-02-03T12:53:14;9.80;99.90
8248;DHT22;4164;49.844;8.830;2023-02-03T12:55:46;9.70;99.90
8248;DHT22;4164;49.844;8.830;2023-02-03T13:00:57;9.60;99.90
8248;DHT22;4164;49.844;8.830;2023-02-03T13:03:50;9.50;99.90
8248;DHT22;4164;49.844;8.830;2023-02-03T13:06:38;9.40;99.90
8248;DHT22;4164;49.844;8.830;2023-02-03T13:09:40;9.30;99.90
8248;DHT22;4164;49.844;8.830;2023-02-03T13:12:13;9.30;99.90
8248;DHT22;4164;49.844;8.830;2023-02-03T13:15:26;9.30;99.90
8248;DHT22;4164;49.844;8.830;2023-02-03T13:17:55;9.20;99.90
8248;DHT22;4164;49.844;8.830;2023-02-03T13:20:25;9.20;99.90
8248;DHT22;4164;49.844;8.830;2023-02-03T13:22:51;9.10;99.90
8248;DHT22;4164;49.844;8.830;2023-02-03T13:25:24;9.10;99.90
8248;DHT22;4164;49.844;8.830;2023-02-03T13:28:16;9.10;99.90
8248;DHT22;4164;49.844;8.830;2023-02-03T13:34:01;8.80;99.90
8248;DHT22;4164;49.844;8.830;2023-02-03T13:37:05;8.70;99.90
8248;DHT22;4164;49.844;8.830;2023-02-03T13:42:34;8.40;99.90
8248;DHT22;4164;49.844;8.830;2023-02-03T13:45:05;8.40;99.90
8248;DHT22;4164;49.844;8.830;2023-02-03T13:47:32;8.30;99.90
8248;DHT22;4164;49.844;8.830;2023-02-03T13:50:04;8.30;99.90
8248;DHT22;4164;49.844;8.830;2023-02-03T13:52:43;8.30;99.90
8248;DHT22;4164;49.844;8.830;2023-02-03T13:55:29;8.40;99.90
8248;DHT22;4164;49.844;8.830;2023-02-03T13:57:55;8.30;99.90
8248;DHT22;4164;49.844;8.830;2023-02-03T14:05:57;8.30;99.90
8248;DHT22;4164;49.844;8.830;2023-02-03T14:19:08;8.20;99.90
8248;DHT22;4164;49.844;8.830;2023-02-03T14:21:48;8.10;99.90
8248;DHT22;4164;49.844;8.830;2023-02-03T14:24:16;8.10;99.90
8248;DHT22;4164;49.844;8.830;2023-02-03T14:26:51;8.10;99.90
8248;DHT22;4164;49.844;8.830;2023-02-03T14:32:04;8.10;99.90
8248;DHT22;4164;49.844;8.830;2023-02-03T14:34:47;8.10;99.90
8248;DHT22;4164;49.844;8.830;2023-02-03T14:37:26;8.10;99.90
8248;DHT22;4164;49.844;8.830;2023-02-03T14:48:51;8.00;99.90
8248;DHT22;4164;49.844;8.830;2023-02-03T14:55:00;7.90;99.90
8248;DHT22;4164;49.844;8.830;2023-02-03T14:59:55;7.90;99.90
8248;DHT22;4164;49.844;8.830;2023-02-03T15:02:29;7.80;99.90
8248;DHT22;4164;49.844;8.830;2023-02-03T15:07:48;7.80;99.90
8248;DHT22;4164;49.844;8.830;2023-02-03T15:12:47;7.80;99.90
8248;DHT22;4164;49.844;8.830;2023-02-03T15:17:44;7.80;99.90
8248;DHT22;4164;49.844;8.830;2023-02-03T15:22:54;7.80;99.90
8248;DHT22;4164;49.844;8.830;2023-02-03T15:25:21;7.80;99.90
8248;DHT22;4164;49.844;8.830;2023-02-03T15:27:50;7.80;99.90
8248;DHT22;4164;49.844;8.830;2023-02-03T15:30:26;7.80;99.90
8248;DHT22;4164;49.844;8.830;2023-02-03T15:33:06;7.80;99.90
8248;DHT22;4164;49.844;8.830;2023-02-03T15:35:34;7.80;99.90
8248;DHT22;4164;49.844;8.830;2023-02-03T15:38:32;7.80;99.90
8248;DHT22;4164;49.844;8.830;2023-02-03T15:41:01;7.80;99.90
8248;DHT22;4164;49.844;8.830;2023-02-03T15:43:39;7.80;99.90
8248;DHT22;4164;49.844;8.830;2023-02-03T15:46:13;7.90;99.90
8248;DHT22;4164;49.844;8.830;2023-02-03T15:49:03;7.90;99.90
8248;DHT22;4164;49.844;8.830;2023-02-03T15:51:38;7.90;99.90
8248;DHT22;4164;49.844;8.830;2023-02-03T15:54:15;7.90;99.90
8248;DHT22;4164;49.844;8.830;2023-02-03T15:56:44;7.90;99.90
8248;DHT22;4164;49.844;8.830;2023-02-03T16:01:45;7.90;99.90
8248;DHT22;4164;49.844;8.830;2023-02-03T16:04:11;8.00;99.90
8248;DHT22;4164;49.844;8.830;2023-02-03T16:06:38;8.00;99.90
8248;DHT22;4164;49.844;8.830;2023-02-03T16:09:38;8.00;99.90
8248;DHT22;4164;49.844;8.830;2023-02-03T16:14:48;8.00;99.90
8248;DHT22;4164;49.844;8.830;2023-02-03T16:17:34;8.00;99.90
8248;DHT22;4164;49.844;8.830;2023-02-03T16:20:21;8.00;99.90
8248;DHT22;4164;49.844;8.830;2023-02-03T16:23:16;8.00;99.90
8248;DHT22;4164;49.844;8.830;2023-02-03T16:25:43;8.00;99.90
8248;DHT22;4164;49.844;8.830;2023-02-03T16:28:25;8.00;99.90
8248;DHT22;4164;49.844;8.830;2023-02-03T16:31:15;7.90;99.90
8248;DHT22;4164;49.844;8.830;2023-02-03T16:34:01;7.90;99.90
8248;DHT22;4164;49.844;8.830;2023-02-03T16:36:45;7.90;99.90
8248;DHT22;4164;49.844;8.830;2023-02-03T16:39:29;7.90;99.90
8248;DHT22;4164;49.844;8.830;2023-02-03T16:42:18;7.90;99.90
8248;DHT22;4164;49.844;8.830;2023-02-03T16:45:14;7.90;99.90
8248;DHT22;4164;49.844;8.830;2023-02-03T16:47:58;7.90;99.90
8248;DHT22;4164;49.844;8.830;2023-02-03T16:50:43;7.90;99.90
8248;DHT22;4164;49.844;8.830;2023-02-03T16:53:29;7.90;99.90
8248;DHT22;4164;49.844;8.830;2023-02-03T16:55:56;7.80;99.90
8248;DHT22;4164;49.844;8.830;2023-02-03T16:58:22;7.80;99.90
8248;DHT22;4164;49.844;8.830;2023-02-03T17:00:50;7.80;99.90
8248;DHT22;4164;49.844;8.830;2023-02-03T17:03:18;7.80;99.90
8248;DHT22;4164;49.844;8.830;2023-02-03T17:05:45;7.80;99.90
8248;DHT22;4164;49.844;8.830;2023-02-03T17:08:12;7.80;99.90
8248;DHT22;4164;49.844;8.830;2023-02-03T17:10:39;7.80;99.90
8248;DHT22;4164;49.844;8.830;2023-02-03T17:13:05;7.80;99.90
8248;DHT22;4164;49.844;8.830;2023-02-03T17:15:33;7.80;99.90
8248;DHT22;4164;49.844;8.830;2023-02-03T17:17:58;7.80;99.90
8248;DHT22;4164;49.844;8.830;2023-02-03T17:20:24;7.80;99.90
8248;DHT22;4164;49.844;8.830;2023-02-03T17:22:50;7.80;99.90
8248;DHT22;4164;49.844;8.830;2023-02-03T17:25:19;7.80;99.90
8248;DHT22;4164;49.844;8.830;2023-02-03T17:27:46;7.80;99.90
8248;DHT22;4164;49.844;8.830;2023-02-03T17:30:12;7.90;99.90
8248;DHT22;4164;49.844;8.830;2023-02-03T17:32:38;7.90;99.90
8248;DHT22;4164;49.844;8.830;2023-02-03T17:35:04;7.90;99.90
8248;DHT22;4164;49.844;8.830;2023-02-03T17:37:33;7.80;99.90
8248;DHT22;4164;49.844;8.830;2023-02-03T17:39:59;7.90;99.90
8248;DHT22;4164;49.844;8.830;2023-02-03T17:42:24;7.90;99.90
8248;DHT22;4164;49.844;8.830;2023-02-03T17:44:50;7.90;99.90
8248;DHT22;4164;49.844;8.830;2023-02-03T17:47:15;7.90;99.90
8248;DHT22;4164;49.844;8.830;2023-02-03T17:49:41;7.90;99.90
8248;DHT22;4164;49.844;8.830;2023-02-03T17:52:09;7.90;99.90
8248;DHT22;4164;49.844;8.830;2023-02-03T17:54:34;7.90;99.90
8248;DHT22;4164;49.844;8.830;2023-02-03T17:57:00;7.90;99.90
8248;DHT22;4164;49.844;8.830;2023-02-03T17:59:25;7.90;99.90
8248;DHT22;4164;49.844;8.830;2023-02-03T18:01:51;7.90;99.90
8248;DHT22;4164;49.844;8.830;2023-02-03T18:04:17;7.90;99.90
8248;DHT22;4164;49.844;8.830;2023-02-03T18:06:42;7.90;99.90
8248;DHT22;4164;49.844;8.830;2023-02-03T18:09:09;7.90;99.90
8248;DHT22;4164;49.844;8.830;2023-02-03T18:11:38;8.00;99.90
8248;DHT22;4164;49.844;8.830;2023-02-03T18:14:04;8.00;99.90
8248;DHT22;4164;49.844;8.830;2023-02-03T18:16:31;7.90;99.90
8248;DHT22;4164;49.844;8.830;2023-02-03T18:19:00;7.90;99.90
8248;DHT22;4164;49.844;8.830;2023-02-03T18:21:26;7.90;99.90
8248;DHT22;4164;49.844;8.830;2023-02-03T18:23:52;8.00;99.90
8248;DHT22;4164;49.844;8.830;2023-02-03T18:26:22;7.90;99.90
8248;DHT22;4164;49.844;8.830;2023-02-03T18:28:50;7.90;99.90
8248;DHT22;4164;49.844;8.830;2023-02-03T18:31:18;7.90;99.90
8248;DHT22;4164;49.844;8.830;2023-02-03T18:33:44;7.90;99.90
8248;DHT22;4164;49.844;8.830;2023-02-03T18:36:15;7.90;99.90
8248;DHT22;4164;49.844;8.830;2023-02-03T18:38:42;7.90;99.90
8248;DHT22;4164;49.844;8.830;2023-02-03T18:41:15;7.90;99.90
8248;DHT22;4164;49.844;8.830;2023-02-03T18:43:42;7.90;99.90
8248;DHT22;4164;49.844;8.830;2023-02-03T18:46:12;7.90;99.90
8248;DHT22;4164;49.844;8.830;2023-02-03T18:48:40;7.90;99.90
8248;DHT22;4164;49.844;8.830;2023-02-03T18:51:09;7.90;99.90
8248;DHT22;4164;49.844;8.830;2023-02-03T18:53:35;8.00;99.90
8248;DHT22;4164;49.844;8.830;2023-02-03T18:56:05;8.10;99.90
8248;DHT22;4164;49.844;8.830;2023-02-03T18:58:30;8.20;99.90
8248;DHT22;4164;49.844;8.830;2023-02-03T19:00:56;8.30;99.90